sensor_id;sensor_type;location;lat;lon;timestamp;P1;durP1;ratioP1;P2;durP2;ratioP2
12208;SDS011;6167;43.080;25.634;2023-08-06T00:00:39;7.20;;;6.50;;
12208;SDS011;6167;43.080;25.634;2023-08-06T00:03:06;11.05;;;7.00;;
12208;SDS011;6167;43.080;25.634;2023-08-06T00:05:33;7.88;;;7.28;;
12208;SDS011;6167;43.080;25.634;2023-08-06T00:08:00;8.60;;;7.72;;
12208;SDS011;6167;43.080;25.634;2023-08-06T00:10:27;8.45;;;7.63;;
12208;SDS011;6167;43.080;25.634;2023-08-06T00:12:55;9.95;;;8.07;;
12208;SDS011;6167;43.080;25.634;2023-08-06T00:15:22;6.90;;;6.20;;
12208;SDS011;6167;43.080;25.634;2023-08-06T00:17:49;7.65;;;6.95;;
12208;SDS011;6167;43.080;25.634;2023-08-06T00:20:16;7.47;;;6.50;;
12208;SDS011;6167;43.080;25.634;2023-08-06T00:22:42;7.30;;;6.57;;
12208;SDS011;6167;43.080;25.634;2023-08-06T00:25:09;7.63;;;7.03;;
12208;SDS011;6167;43.080;25.634;2023-08-06T00:27:36;11.15;;;7.15;;
12208;SDS011;6167;43.080;25.634;2023-08-06T00:30:05;9.50;;;8.48;;
12208;SDS011;6167;43.080;25.634;2023-08-06T00:32:33;11.50;;;7.25;;
12208;SDS011;6167;43.080;25.634;2023-08-06T00:34:59;6.65;;;5.97;;
12208;SDS011;6167;43.080;25.634;2023-08-06T00:37:26;5.07;;;4.68;;
12208;SDS011;6167;43.080;25.634;2023-08-06T00:39:53;6.97;;;4.03;;
12208;SDS011;6167;43.080;25.634;2023-08-06T00:42:20;5.90;;;3.55;;
12208;SDS011;6167;43.080;25.634;2023-08-06T00:44:47;4.97;;;3.40;;
12208;SDS011;6167;43.080;25.634;2023-08-06T00:47:16;4.05;;;3.08;;
12208;SDS011;6167;43.080;25.634;2023-08-06T00:49:43;3.90;;;3.30;;
12208;SDS011;6167;43.080;25.634;2023-08-06T00:52:10;4.68;;;2.83;;
12208;SDS011;6167;43.080;25.634;2023-08-06T00:54:38;2.60;;;2.40;;
12208;SDS011;6167;43.080;25.634;2023-08-06T00:57:05;4.97;;;2.47;;
12208;SDS011;6167;43.080;25.634;2023-08-06T00:59:33;2.92;;;2.60;;
12208;SDS011;6167;43.080;25.634;2023-08-06T01:02:01;4.45;;;2.75;;
12208;SDS011;6167;43.080;25.634;2023-08-06T01:04:29;3.60;;;2.60;;
12208;SDS011;6167;43.080;25.634;2023-08-06T01:07:05;2.85;;;2.60;;
12208;SDS011;6167;43.080;25.634;2023-08-06T01:09:43;5.10;;;2.80;;
12208;SDS011;6167;43.080;25.634;2023-08-06T01:12:18;2.65;;;2.40;;
12208;SDS011;6167;43.080;25.634;2023-08-06T01:14:55;2.47;;;2.22;;
12208;SDS011;6167;43.080;25.634;2023-08-06T01:17:29;3.83;;;2.58;;
12208;SDS011;6167;43.080;25.634;2023-08-06T01:19:58;4.82;;;2.30;;
12208;SDS011;6167;43.080;25.634;2023-08-06T01:22:26;3.05;;;2.10;;
12208;SDS011;6167;43.080;25.634;2023-08-06T01:24:53;2.50;;;2.30;;
12208;SDS011;6167;43.080;25.634;2023-08-06T01:27:22;2.60;;;2.40;;
12208;SDS011;6167;43.080;25.634;2023-08-06T01:29:56;3.30;;;2.13;;
12208;SDS011;6167;43.080;25.634;2023-08-06T01:32:29;2.78;;;2.25;;
12208;SDS011;6167;43.080;25.634;2023-08-06T01:35:00;2.60;;;2.40;;
12208;SDS011;6167;43.080;25.634;2023-08-06T01:37:31;3.72;;;2.58;;
12208;SDS011;6167;43.080;25.634;2023-08-06T01:39:59;2.85;;;2.65;;
12208;SDS011;6167;43.080;25.634;2023-08-06T01:42:25;3.42;;;2.63;;
12208;SDS011;6167;43.080;25.634;2023-08-06T01:44:52;2.90;;;2.70;;
12208;SDS011;6167;43.080;25.634;2023-08-06T01:47:19;7.32;;;2.75;;
12208;SDS011;6167;43.080;25.634;2023-08-06T01:49:46;2.53;;;2.33;;
12208;SDS011;6167;43.080;25.634;2023-08-06T01:52:13;5.13;;;2.80;;
12208;SDS011;6167;43.080;25.634;2023-08-06T01:54:41;2.95;;;2.67;;
12208;SDS011;6167;43.080;25.634;2023-08-06T01:57:08;2.80;;;2.60;;
12208;SDS011;6167;43.080;25.634;2023-08-06T01:59:34;3.03;;;2.38;;
12208;SDS011;6167;43.080;25.634;2023-08-06T02:02:01;3.13;;;2.67;;
12208;SDS011;6167;43.080;25.634;2023-08-06T02:04:28;2.75;;;2.53;;
12208;SDS011;6167;43.080;25.634;2023-08-06T02:06:55;4.57;;;2.78;;
12208;SDS011;6167;43.080;25.634;2023-08-06T02:09:22;5.03;;;2.75;;
12208;SDS011;6167;43.080;25.634;2023-08-06T02:11:50;3.03;;;2.50;;
12208;SDS011;6167;43.080;25.634;2023-08-06T02:14:16;2.67;;;2.45;;
12208;SDS011;6167;43.080;25.634;2023-08-06T02:16:43;2.83;;;2.28;;
12208;SDS011;6167;43.080;25.634;2023-08-06T02:19:10;3.22;;;2.67;;
12208;SDS011;6167;43.080;25.634;2023-08-06T02:21:37;4.55;;;2.92;;
12208;SDS011;6167;43.080;25.634;2023-08-06T02:24:04;2.95;;;2.70;;
12208;SDS011;6167;43.080;25.634;2023-08-06T02:26:30;3.50;;;2.75;;
12208;SDS011;6167;43.080;25.634;2023-08-06T02:28:58;4.28;;;2.70;;
12208;SDS011;6167;43.080;25.634;2023-08-06T02:31:25;2.38;;;2.17;;
12208;SDS011;6167;43.080;25.634;2023-08-06T02:33:52;2.22;;;2.03;;
12208;SDS011;6167;43.080;25.634;2023-08-06T02:36:20;2.53;;;2.33;;
12208;SDS011;6167;43.080;25.634;2023-08-06T02:38:47;3.17;;;2.28;;
12208;SDS011;6167;43.080;25.634;2023-08-06T02:41:13;2.58;;;2.38;;
12208;SDS011;6167;43.080;25.634;2023-08-06T02:43:40;2.47;;;2.28;;
12208;SDS011;6167;43.080;25.634;2023-08-06T02:46:08;2.25;;;2.08;;
12208;SDS011;6167;43.080;25.634;2023-08-06T02:48:35;2.28;;;2.08;;
12208;SDS011;6167;43.080;25.634;2023-08-06T02:51:02;2.38;;;2.20;;
12208;SDS011;6167;43.080;25.634;2023-08-06T02:53:29;2.15;;;1.95;;
12208;SDS011;6167;43.080;25.634;2023-08-06T02:55:56;2.13;;;1.92;;
12208;SDS011;6167;43.080;25.634;2023-08-06T02:58:24;3.08;;;2.60;;
12208;SDS011;6167;43.080;25.634;2023-08-06T03:01:00;2.70;;;2.50;;
12208;SDS011;6167;43.080;25.634;2023-08-06T03:03:29;7.32;;;2.60;;
12208;SDS011;6167;43.080;25.634;2023-08-06T03:05:56;2.72;;;2.40;;
12208;SDS011;6167;43.080;25.634;2023-08-06T03:08:23;2.88;;;2.20;;
12208;SDS011;6167;43.080;25.634;2023-08-06T03:10:51;3.72;;;2.00;;
12208;SDS011;6167;43.080;25.634;2023-08-06T03:13:18;2.35;;;2.10;;
12208;SDS011;6167;43.080;25.634;2023-08-06T03:15:51;2.30;;;2.10;;
12208;SDS011;6167;43.080;25.634;2023-08-06T03:18:19;2.55;;;2.35;;
12208;SDS011;6167;43.080;25.634;2023-08-06T03:20:47;2.90;;;2.60;;
12208;SDS011;6167;43.080;25.634;2023-08-06T03:23:14;3.10;;;2.30;;
12208;SDS011;6167;43.080;25.634;2023-08-06T03:25:41;2.60;;;2.40;;
12208;SDS011;6167;43.080;25.634;2023-08-06T03:28:08;2.55;;;2.35;;
12208;SDS011;6167;43.080;25.634;2023-08-06T03:30:34;2.60;;;2.40;;
12208;SDS011;6167;43.080;25.634;2023-08-06T03:33:01;2.92;;;2.28;;
12208;SDS011;6167;43.080;25.634;2023-08-06T03:35:28;2.88;;;2.58;;
12208;SDS011;6167;43.080;25.634;2023-08-06T03:37:56;2.50;;;2.30;;
12208;SDS011;6167;43.080;25.634;2023-08-06T03:40:23;3.10;;;2.65;;
12208;SDS011;6167;43.080;25.634;2023-08-06T03:42:50;2.65;;;2.45;;
12208;SDS011;6167;43.080;25.634;2023-08-06T03:45:17;2.33;;;2.10;;
12208;SDS011;6167;43.080;25.634;2023-08-06T03:47:43;2.35;;;2.15;;
12208;SDS011;6167;43.080;25.634;2023-08-06T03:50:10;2.78;;;2.35;;
12208;SDS011;6167;43.080;25.634;2023-08-06T03:52:37;3.35;;;2.50;;
12208;SDS011;6167;43.080;25.634;2023-08-06T03:55:05;2.97;;;2.78;;
12208;SDS011;6167;43.080;25.634;2023-08-06T03:57:32;2.63;;;2.42;;
12208;SDS011;6167;43.080;25.634;2023-08-06T03:59:59;2.65;;;2.45;;
12208;SDS011;6167;43.080;25.634;2023-08-06T04:02:26;3.22;;;2.83;;
12208;SDS011;6167;43.080;25.634;2023-08-06T04:04:53;2.67;;;2.47;;
12208;SDS011;6167;43.080;25.634;2023-08-06T04:07:20;2.70;;;2.50;;
12208;SDS011;6167;43.080;25.634;2023-08-06T04:09:56;4.05;;;2.50;;
12208;SDS011;6167;43.080;25.634;2023-08-06T04:12:26;2.60;;;2.40;;
12208;SDS011;6167;43.080;25.634;2023-08-06T04:14:53;5.00;;;2.42;;
12208;SDS011;6167;43.080;25.634;2023-08-06T04:17:20;3.10;;;2.42;;
12208;SDS011;6167;43.080;25.634;2023-08-06T04:19:49;3.17;;;2.33;;
12208;SDS011;6167;43.080;25.634;2023-08-06T04:22:17;2.80;;;2.60;;
12208;SDS011;6167;43.080;25.634;2023-08-06T04:24:44;12.65;;;10.05;;
12208;SDS011;6167;43.080;25.634;2023-08-06T04:27:11;3.33;;;2.42;;
12208;SDS011;6167;43.080;25.634;2023-08-06T04:29:40;2.33;;;2.10;;
12208;SDS011;6167;43.080;25.634;2023-08-06T04:32:08;3.92;;;2.40;;
12208;SDS011;6167;43.080;25.634;2023-08-06T04:34:35;2.25;;;2.10;;
12208;SDS011;6167;43.080;25.634;2023-08-06T04:37:03;3.67;;;2.75;;
12208;SDS011;6167;43.080;25.634;2023-08-06T04:39:30;2.85;;;2.65;;
12208;SDS011;6167;43.080;25.634;2023-08-06T04:41:57;2.70;;;2.50;;
12208;SDS011;6167;43.080;25.634;2023-08-06T04:44:24;2.72;;;2.40;;
12208;SDS011;6167;43.080;25.634;2023-08-06T04:46:53;2.55;;;2.35;;
12208;SDS011;6167;43.080;25.634;2023-08-06T04:49:20;2.42;;;2.22;;
12208;SDS011;6167;43.080;25.634;2023-08-06T04:51:47;2.72;;;2.00;;
12208;SDS011;6167;43.080;25.634;2023-08-06T04:54:14;3.45;;;2.40;;
12208;SDS011;6167;43.080;25.634;2023-08-06T04:56:40;3.30;;;2.28;;
12208;SDS011;6167;43.080;25.634;2023-08-06T04:59:07;2.97;;;2.28;;
12208;SDS011;6167;43.080;25.634;2023-08-06T05:01:34;2.60;;;2.40;;
12208;SDS011;6167;43.080;25.634;2023-08-06T05:04:02;4.18;;;2.80;;
12208;SDS011;6167;43.080;25.634;2023-08-06T05:06:29;2.40;;;2.20;;
12208;SDS011;6167;43.080;25.634;2023-08-06T05:08:56;3.35;;;2.17;;
12208;SDS011;6167;43.080;25.634;2023-08-06T05:11:23;1.98;;;1.88;;
12208;SDS011;6167;43.080;25.634;2023-08-06T05:13:50;2.30;;;2.10;;
12208;SDS011;6167;43.080;25.634;2023-08-06T05:16:17;2.58;;;2.08;;
12208;SDS011;6167;43.080;25.634;2023-08-06T05:18:44;1.90;;;1.80;;
12208;SDS011;6167;43.080;25.634;2023-08-06T05:21:12;2.65;;;1.60;;
12208;SDS011;6167;43.080;25.634;2023-08-06T05:23:39;2.45;;;2.25;;
12208;SDS011;6167;43.080;25.634;2023-08-06T05:26:06;1.98;;;1.80;;
12208;SDS011;6167;43.080;25.634;2023-08-06T05:28:32;2.03;;;1.85;;
12208;SDS011;6167;43.080;25.634;2023-08-06T05:31:02;1.80;;;1.70;;
12208;SDS011;6167;43.080;25.634;2023-08-06T05:33:29;1.85;;;1.75;;
12208;SDS011;6167;43.080;25.634;2023-08-06T05:35:56;1.73;;;1.63;;
12208;SDS011;6167;43.080;25.634;2023-08-06T05:38:25;2.30;;;2.05;;
12208;SDS011;6167;43.080;25.634;2023-08-06T05:40:51;2.05;;;1.85;;
12208;SDS011;6167;43.080;25.634;2023-08-06T05:43:18;2.92;;;1.65;;
12208;SDS011;6167;43.080;25.634;2023-08-06T05:45:45;1.60;;;1.50;;
12208;SDS011;6167;43.080;25.634;2023-08-06T05:48:12;2.58;;;1.80;;
12208;SDS011;6167;43.080;25.634;2023-08-06T05:50:39;2.53;;;1.90;;
12208;SDS011;6167;43.080;25.634;2023-08-06T05:53:06;3.35;;;2.10;;
12208;SDS011;6167;43.080;25.634;2023-08-06T05:55:34;2.75;;;1.80;;
12208;SDS011;6167;43.080;25.634;2023-08-06T05:58:01;4.85;;;2.80;;
12208;SDS011;6167;43.080;25.634;2023-08-06T06:00:28;3.00;;;2.00;;
12208;SDS011;6167;43.080;25.634;2023-08-06T06:02:55;1.98;;;1.70;;
12208;SDS011;6167;43.080;25.634;2023-08-06T06:05:22;2.42;;;1.98;;
12208;SDS011;6167;43.080;25.634;2023-08-06T06:07:49;1.90;;;1.80;;
12208;SDS011;6167;43.080;25.634;2023-08-06T06:10:16;2.00;;;1.90;;
12208;SDS011;6167;43.080;25.634;2023-08-06T06:12:44;2.10;;;1.73;;
12208;SDS011;6167;43.080;25.634;2023-08-06T06:15:11;4.28;;;1.75;;
12208;SDS011;6167;43.080;25.634;2023-08-06T06:17:37;3.17;;;2.40;;
12208;SDS011;6167;43.080;25.634;2023-08-06T06:20:05;1.77;;;1.67;;
12208;SDS011;6167;43.080;25.634;2023-08-06T06:22:33;2.58;;;2.00;;
12208;SDS011;6167;43.080;25.634;2023-08-06T06:25:00;1.80;;;1.70;;
12208;SDS011;6167;43.080;25.634;2023-08-06T06:27:26;1.85;;;1.65;;
12208;SDS011;6167;43.080;25.634;2023-08-06T06:29:55;2.08;;;1.95;;
12208;SDS011;6167;43.080;25.634;2023-08-06T06:32:22;2.45;;;1.95;;
12208;SDS011;6167;43.080;25.634;2023-08-06T06:34:49;2.03;;;1.80;;
12208;SDS011;6167;43.080;25.634;2023-08-06T06:37:16;1.75;;;1.65;;
12208;SDS011;6167;43.080;25.634;2023-08-06T06:39:43;2.42;;;1.90;;
12208;SDS011;6167;43.080;25.634;2023-08-06T06:42:10;1.88;;;1.77;;
12208;SDS011;6167;43.080;25.634;2023-08-06T06:44:37;3.95;;;2.10;;
12208;SDS011;6167;43.080;25.634;2023-08-06T06:47:05;3.30;;;1.83;;
12208;SDS011;6167;43.080;25.634;2023-08-06T06:49:32;4.07;;;2.00;;
12208;SDS011;6167;43.080;25.634;2023-08-06T06:51:59;2.50;;;2.00;;
12208;SDS011;6167;43.080;25.634;2023-08-06T06:54:27;2.10;;;1.90;;
12208;SDS011;6167;43.080;25.634;2023-08-06T06:56:54;1.95;;;1.85;;
12208;SDS011;6167;43.080;25.634;2023-08-06T06:59:21;2.20;;;1.92;;
12208;SDS011;6167;43.080;25.634;2023-08-06T07:01:48;2.20;;;2.00;;
12208;SDS011;6167;43.080;25.634;2023-08-06T07:04:16;2.15;;;2.00;;
12208;SDS011;6167;43.080;25.634;2023-08-06T07:06:43;3.08;;;1.95;;
12208;SDS011;6167;43.080;25.634;2023-08-06T07:09:10;3.38;;;2.15;;
12208;SDS011;6167;43.080;25.634;2023-08-06T07:11:37;1.88;;;1.70;;
12208;SDS011;6167;43.080;25.634;2023-08-06T07:14:04;4.68;;;2.30;;
12208;SDS011;6167;43.080;25.634;2023-08-06T07:16:31;5.50;;;4.30;;
12208;SDS011;6167;43.080;25.634;2023-08-06T07:18:58;2.55;;;2.35;;
12208;SDS011;6167;43.080;25.634;2023-08-06T07:21:27;2.53;;;2.33;;
12208;SDS011;6167;43.080;25.634;2023-08-06T07:23:53;1.88;;;1.77;;
12208;SDS011;6167;43.080;25.634;2023-08-06T07:26:20;12.40;;;10.10;;
12208;SDS011;6167;43.080;25.634;2023-08-06T07:28:47;4.88;;;3.80;;
12208;SDS011;6167;43.080;25.634;2023-08-06T07:31:14;3.85;;;2.65;;
12208;SDS011;6167;43.080;25.634;2023-08-06T07:33:41;2.50;;;2.30;;
12208;SDS011;6167;43.080;25.634;2023-08-06T07:36:08;2.35;;;2.15;;
12208;SDS011;6167;43.080;25.634;2023-08-06T07:38:37;2.78;;;2.58;;
12208;SDS011;6167;43.080;25.634;2023-08-06T07:41:04;2.80;;;2.60;;
12208;SDS011;6167;43.080;25.634;2023-08-06T07:43:31;2.72;;;2.40;;
12208;SDS011;6167;43.080;25.634;2023-08-06T07:45:58;5.63;;;3.00;;
12208;SDS011;6167;43.080;25.634;2023-08-06T07:48:26;2.80;;;2.60;;
12208;SDS011;6167;43.080;25.634;2023-08-06T07:50:53;2.83;;;2.63;;
12208;SDS011;6167;43.080;25.634;2023-08-06T07:53:20;2.92;;;2.70;;
12208;SDS011;6167;43.080;25.634;2023-08-06T07:55:50;2.88;;;2.67;;
12208;SDS011;6167;43.080;25.634;2023-08-06T07:58:17;2.70;;;2.50;;
12208;SDS011;6167;43.080;25.634;2023-08-06T08:00:45;3.38;;;2.45;;
12208;SDS011;6167;43.080;25.634;2023-08-06T08:03:11;3.83;;;2.83;;
12208;SDS011;6167;43.080;25.634;2023-08-06T08:05:39;3.17;;;2.65;;
12208;SDS011;6167;43.080;25.634;2023-08-06T08:08:06;2.70;;;2.50;;
12208;SDS011;6167;43.080;25.634;2023-08-06T08:10:33;3.20;;;2.33;;
12208;SDS011;6167;43.080;25.634;2023-08-06T08:13:02;2.63;;;2.42;;
12208;SDS011;6167;43.080;25.634;2023-08-06T08:15:30;4.00;;;2.33;;
12208;SDS011;6167;43.080;25.634;2023-08-06T08:17:57;3.28;;;2.53;;
12208;SDS011;6167;43.080;25.634;2023-08-06T08:20:24;3.65;;;2.70;;
12208;SDS011;6167;43.080;25.634;2023-08-06T08:22:56;3.08;;;2.65;;
12208;SDS011;6167;43.080;25.634;2023-08-06T08:25:23;2.92;;;2.70;;
12208;SDS011;6167;43.080;25.634;2023-08-06T08:27:50;3.83;;;2.88;;
12208;SDS011;6167;43.080;25.634;2023-08-06T08:30:18;4.10;;;3.08;;
12208;SDS011;6167;43.080;25.634;2023-08-06T08:32:45;3.38;;;3.08;;
12208;SDS011;6167;43.080;25.634;2023-08-06T08:35:12;5.10;;;4.60;;
12208;SDS011;6167;43.080;25.634;2023-08-06T08:37:41;4.82;;;4.03;;
12208;SDS011;6167;43.080;25.634;2023-08-06T08:40:08;3.47;;;3.28;;
12208;SDS011;6167;43.080;25.634;2023-08-06T08:42:36;24.67;;;14.95;;
12208;SDS011;6167;43.080;25.634;2023-08-06T08:45:04;10.88;;;7.05;;
12208;SDS011;6167;43.080;25.634;2023-08-06T08:47:38;4.60;;;3.20;;
12208;SDS011;6167;43.080;25.634;2023-08-06T08:50:06;4.85;;;2.90;;
12208;SDS011;6167;43.080;25.634;2023-08-06T08:52:35;4.40;;;3.22;;
12208;SDS011;6167;43.080;25.634;2023-08-06T08:55:02;4.53;;;4.13;;
12208;SDS011;6167;43.080;25.634;2023-08-06T08:57:30;4.15;;;3.72;;
12208;SDS011;6167;43.080;25.634;2023-08-06T08:59:57;4.28;;;3.88;;
12208;SDS011;6167;43.080;25.634;2023-08-06T09:02:23;4.50;;;4.10;;
12208;SDS011;6167;43.080;25.634;2023-08-06T09:04:56;4.03;;;3.58;;
12208;SDS011;6167;43.080;25.634;2023-08-06T09:07:26;5.20;;;4.25;;
12208;SDS011;6167;43.080;25.634;2023-08-06T09:09:55;6.35;;;5.75;;
12208;SDS011;6167;43.080;25.634;2023-08-06T09:12:23;5.53;;;4.78;;
12208;SDS011;6167;43.080;25.634;2023-08-06T09:14:50;5.75;;;5.25;;
12208;SDS011;6167;43.080;25.634;2023-08-06T09:17:20;6.78;;;5.32;;
12208;SDS011;6167;43.080;25.634;2023-08-06T09:19:49;5.15;;;4.65;;
12208;SDS011;6167;43.080;25.634;2023-08-06T09:22:17;4.97;;;4.57;;
12208;SDS011;6167;43.080;25.634;2023-08-06T09:24:44;5.85;;;5.32;;
12208;SDS011;6167;43.080;25.634;2023-08-06T09:27:12;5.57;;;4.53;;
12208;SDS011;6167;43.080;25.634;2023-08-06T09:29:40;5.00;;;4.60;;
12208;SDS011;6167;43.080;25.634;2023-08-06T09:32:10;7.07;;;4.82;;
12208;SDS011;6167;43.080;25.634;2023-08-06T09:34:38;5.57;;;4.10;;
12208;SDS011;6167;43.080;25.634;2023-08-06T09:37:07;4.13;;;3.83;;
12208;SDS011;6167;43.080;25.634;2023-08-06T09:39:38;4.63;;;4.07;;
12208;SDS011;6167;43.080;25.634;2023-08-06T09:42:06;4.68;;;4.28;;
12208;SDS011;6167;43.080;25.634;2023-08-06T09:44:33;6.32;;;4.18;;
12208;SDS011;6167;43.080;25.634;2023-08-06T09:47:01;5.10;;;4.20;;
12208;SDS011;6167;43.080;25.634;2023-08-06T09:49:40;4.40;;;4.07;;
12208;SDS011;6167;43.080;25.634;2023-08-06T09:52:09;4.35;;;3.95;;
12208;SDS011;6167;43.080;25.634;2023-08-06T09:54:39;4.50;;;4.18;;
12208;SDS011;6167;43.080;25.634;2023-08-06T09:57:06;4.20;;;3.78;;
12208;SDS011;6167;43.080;25.634;2023-08-06T09:59:35;5.25;;;4.30;;
12208;SDS011;6167;43.080;25.634;2023-08-06T10:02:04;4.28;;;3.85;;
12208;SDS011;6167;43.080;25.634;2023-08-06T10:04:40;5.20;;;4.55;;
12208;SDS011;6167;43.080;25.634;2023-08-06T10:07:10;4.57;;;4.22;;
12208;SDS011;6167;43.080;25.634;2023-08-06T10:09:37;23.33;;;13.35;;
12208;SDS011;6167;43.080;25.634;2023-08-06T10:12:06;4.60;;;4.13;;
12208;SDS011;6167;43.080;25.634;2023-08-06T10:14:34;4.10;;;3.80;;
12208;SDS011;6167;43.080;25.634;2023-08-06T10:17:05;4.10;;;3.72;;
12208;SDS011;6167;43.080;25.634;2023-08-06T10:19:32;5.32;;;3.80;;
12208;SDS011;6167;43.080;25.634;2023-08-06T10:22:10;4.53;;;3.75;;
12208;SDS011;6167;43.080;25.634;2023-08-06T10:25:01;3.85;;;3.50;;
12208;SDS011;6167;43.080;25.634;2023-08-06T10:27:31;4.60;;;4.20;;
12208;SDS011;6167;43.080;25.634;2023-08-06T10:32:49;6.13;;;4.07;;
12208;SDS011;6167;43.080;25.634;2023-08-06T10:35:31;4.75;;;4.25;;
12208;SDS011;6167;43.080;25.634;2023-08-06T10:38:04;4.38;;;4.07;;
12208;SDS011;6167;43.080;25.634;2023-08-06T10:40:35;4.30;;;3.90;;
12208;SDS011;6167;43.080;25.634;2023-08-06T10:43:02;4.53;;;4.13;;
12208;SDS011;6167;43.080;25.634;2023-08-06T10:45:33;6.60;;;3.65;;
12208;SDS011;6167;43.080;25.634;2023-08-06T10:48:01;3.83;;;3.53;;
12208;SDS011;6167;43.080;25.634;2023-08-06T10:50:31;3.78;;;3.47;;
12208;SDS011;6167;43.080;25.634;2023-08-06T10:53:03;4.50;;;4.00;;
12208;SDS011;6167;43.080;25.634;2023-08-06T10:55:32;5.68;;;5.10;;
12208;SDS011;6167;43.080;25.634;2023-08-06T10:58:00;3.63;;;3.30;;
12208;SDS011;6167;43.080;25.634;2023-08-06T11:00:27;4.65;;;3.58;;
12208;SDS011;6167;43.080;25.634;2023-08-06T11:02:54;4.95;;;4.00;;
12208;SDS011;6167;43.080;25.634;2023-08-06T11:05:21;4.10;;;3.80;;
12208;SDS011;6167;43.080;25.634;2023-08-06T11:07:48;4.47;;;4.18;;
12208;SDS011;6167;43.080;25.634;2023-08-06T11:10:18;7.05;;;5.13;;
12208;SDS011;6167;43.080;25.634;2023-08-06T11:12:45;10.65;;;6.38;;
12208;SDS011;6167;43.080;25.634;2023-08-06T11:15:13;12.10;;;6.60;;
12208;SDS011;6167;43.080;25.634;2023-08-06T11:17:40;12.65;;;6.78;;
12208;SDS011;6167;43.080;25.634;2023-08-06T11:20:08;10.05;;;7.22;;
12208;SDS011;6167;43.080;25.634;2023-08-06T11:22:37;10.52;;;6.97;;
12208;SDS011;6167;43.080;25.634;2023-08-06T11:25:05;12.85;;;8.15;;
12208;SDS011;6167;43.080;25.634;2023-08-06T11:27:33;11.80;;;7.50;;
12208;SDS011;6167;43.080;25.634;2023-08-06T11:30:00;9.10;;;7.22;;
12208;SDS011;6167;43.080;25.634;2023-08-06T11:32:29;10.02;;;7.47;;
12208;SDS011;6167;43.080;25.634;2023-08-06T11:34:56;9.32;;;5.72;;
12208;SDS011;6167;43.080;25.634;2023-08-06T11:37:23;7.72;;;5.55;;
12208;SDS011;6167;43.080;25.634;2023-08-06T11:39:50;8.60;;;5.05;;
12208;SDS011;6167;43.080;25.634;2023-08-06T11:42:17;8.18;;;5.32;;
12208;SDS011;6167;43.080;25.634;2023-08-06T11:44:45;4.80;;;4.35;;
12208;SDS011;6167;43.080;25.634;2023-08-06T11:47:13;5.45;;;4.82;;
12208;SDS011;6167;43.080;25.634;2023-08-06T11:49:43;6.07;;;4.25;;
12208;SDS011;6167;43.080;25.634;2023-08-06T11:52:18;5.78;;;4.30;;
12208;SDS011;6167;43.080;25.634;2023-08-06T11:54:59;4.50;;;4.10;;
12208;SDS011;6167;43.080;25.634;2023-08-06T11:57:29;5.05;;;3.85;;
12208;SDS011;6167;43.080;25.634;2023-08-06T11:59:58;4.10;;;3.70;;
12208;SDS011;6167;43.080;25.634;2023-08-06T12:02:30;4.45;;;3.60;;
12208;SDS011;6167;43.080;25.634;2023-08-06T12:05:04;4.18;;;3.50;;
12208;SDS011;6167;43.080;25.634;2023-08-06T12:07:37;4.55;;;3.83;;
12208;SDS011;6167;43.080;25.634;2023-08-06T12:10:05;4.38;;;3.70;;
12208;SDS011;6167;43.080;25.634;2023-08-06T12:12:32;5.50;;;5.05;;
12208;SDS011;6167;43.080;25.634;2023-08-06T12:14:59;4.85;;;4.45;;
12208;SDS011;6167;43.080;25.634;2023-08-06T12:17:26;4.90;;;4.40;;
12208;SDS011;6167;43.080;25.634;2023-08-06T12:19:53;5.45;;;4.15;;
12208;SDS011;6167;43.080;25.634;2023-08-06T12:22:22;4.50;;;4.10;;
12208;SDS011;6167;43.080;25.634;2023-08-06T12:24:49;4.80;;;3.80;;
12208;SDS011;6167;43.080;25.634;2023-08-06T12:27:16;5.40;;;3.80;;
12208;SDS011;6167;43.080;25.634;2023-08-06T12:29:43;6.13;;;3.90;;
12208;SDS011;6167;43.080;25.634;2023-08-06T12:32:11;6.85;;;4.30;;
12208;SDS011;6167;43.080;25.634;2023-08-06T12:34:38;4.10;;;3.78;;
12208;SDS011;6167;43.080;25.634;2023-08-06T12:37:07;4.97;;;3.97;;
12208;SDS011;6167;43.080;25.634;2023-08-06T12:39:36;3.97;;;3.67;;
12208;SDS011;6167;43.080;25.634;2023-08-06T12:42:04;4.10;;;3.55;;
12208;SDS011;6167;43.080;25.634;2023-08-06T12:44:31;4.55;;;4.15;;
12208;SDS011;6167;43.080;25.634;2023-08-06T12:46:59;3.80;;;3.50;;
12208;SDS011;6167;43.080;25.634;2023-08-06T12:49:25;3.75;;;3.33;;
12208;SDS011;6167;43.080;25.634;2023-08-06T12:51:56;3.47;;;3.17;;
12208;SDS011;6167;43.080;25.634;2023-08-06T12:54:25;3.50;;;3.20;;
12208;SDS011;6167;43.080;25.634;2023-08-06T12:56:54;3.90;;;3.50;;
12208;SDS011;6167;43.080;25.634;2023-08-06T12:59:22;4.55;;;3.88;;
12208;SDS011;6167;43.080;25.634;2023-08-06T13:01:49;3.97;;;3.05;;
12208;SDS011;6167;43.080;25.634;2023-08-06T13:04:16;3.70;;;2.90;;
12208;SDS011;6167;43.080;25.634;2023-08-06T13:06:43;3.45;;;2.90;;
12208;SDS011;6167;43.080;25.634;2023-08-06T13:09:10;3.70;;;2.97;;
12208;SDS011;6167;43.080;25.634;2023-08-06T13:11:37;4.97;;;3.30;;
12208;SDS011;6167;43.080;25.634;2023-08-06T13:14:07;3.22;;;3.03;;
12208;SDS011;6167;43.080;25.634;2023-08-06T13:16:34;3.03;;;2.83;;
12208;SDS011;6167;43.080;25.634;2023-08-06T13:19:02;3.55;;;3.22;;
12208;SDS011;6167;43.080;25.634;2023-08-06T13:21:34;3.90;;;3.45;;
12208;SDS011;6167;43.080;25.634;2023-08-06T13:24:01;3.50;;;3.20;;
12208;SDS011;6167;43.080;25.634;2023-08-06T13:26:29;4.63;;;3.00;;
12208;SDS011;6167;43.080;25.634;2023-08-06T13:28:57;3.95;;;3.65;;
12208;SDS011;6167;43.080;25.634;2023-08-06T13:31:26;3.92;;;3.30;;
12208;SDS011;6167;43.080;25.634;2023-08-06T13:33:54;3.58;;;3.28;;
12208;SDS011;6167;43.080;25.634;2023-08-06T13:36:23;3.45;;;3.15;;
12208;SDS011;6167;43.080;25.634;2023-08-06T13:38:50;3.60;;;3.30;;
12208;SDS011;6167;43.080;25.634;2023-08-06T13:41:17;3.05;;;2.85;;
12208;SDS011;6167;43.080;25.634;2023-08-06T13:43:44;4.10;;;3.80;;
12208;SDS011;6167;43.080;25.634;2023-08-06T13:46:11;3.63;;;3.33;;
12208;SDS011;6167;43.080;25.634;2023-08-06T13:48:43;6.47;;;3.47;;
12208;SDS011;6167;43.080;25.634;2023-08-06T13:51:10;3.75;;;3.45;;
12208;SDS011;6167;43.080;25.634;2023-08-06T13:53:38;3.80;;;3.10;;
12208;SDS011;6167;43.080;25.634;2023-08-06T13:56:06;3.58;;;3.28;;
12208;SDS011;6167;43.080;25.634;2023-08-06T13:58:35;3.33;;;3.13;;
12208;SDS011;6167;43.080;25.634;2023-08-06T14:01:01;3.70;;;3.40;;
12208;SDS011;6167;43.080;25.634;2023-08-06T14:03:29;3.60;;;3.30;;
12208;SDS011;6167;43.080;25.634;2023-08-06T14:05:57;4.60;;;3.53;;
12208;SDS011;6167;43.080;25.634;2023-08-06T14:08:24;2.95;;;2.75;;
12208;SDS011;6167;43.080;25.634;2023-08-06T14:10:51;3.22;;;2.97;;
12208;SDS011;6167;43.080;25.634;2023-08-06T14:13:19;3.53;;;3.33;;
12208;SDS011;6167;43.080;25.634;2023-08-06T14:15:46;3.75;;;3.45;;
12208;SDS011;6167;43.080;25.634;2023-08-06T14:18:13;7.32;;;6.55;;
12208;SDS011;6167;43.080;25.634;2023-08-06T14:20:40;5.07;;;4.53;;
12208;SDS011;6167;43.080;25.634;2023-08-06T14:23:09;3.47;;;3.17;;
12208;SDS011;6167;43.080;25.634;2023-08-06T14:25:37;5.25;;;4.85;;
12208;SDS011;6167;43.080;25.634;2023-08-06T14:28:05;3.83;;;3.53;;
12208;SDS011;6167;43.080;25.634;2023-08-06T14:30:32;2.90;;;2.70;;
12208;SDS011;6167;43.080;25.634;2023-08-06T14:32:59;3.00;;;2.80;;
12208;SDS011;6167;43.080;25.634;2023-08-06T14:35:26;3.55;;;3.25;;
12208;SDS011;6167;43.080;25.634;2023-08-06T14:37:54;3.60;;;3.30;;
12208;SDS011;6167;43.080;25.634;2023-08-06T14:40:23;3.17;;;2.85;;
12208;SDS011;6167;43.080;25.634;2023-08-06T14:42:51;3.55;;;3.28;;
12208;SDS011;6167;43.080;25.634;2023-08-06T14:45:18;3.45;;;2.80;;
12208;SDS011;6167;43.080;25.634;2023-08-06T14:47:45;3.30;;;3.00;;
12208;SDS011;6167;43.080;25.634;2023-08-06T14:50:12;3.35;;;3.05;;
12208;SDS011;6167;43.080;25.634;2023-08-06T14:52:38;4.10;;;3.20;;
12208;SDS011;6167;43.080;25.634;2023-08-06T14:55:06;4.25;;;3.10;;